sensor_id;sensor_type;location;lat;lon;timestamp;P1;durP1;ratioP1;P2;durP2;ratioP2
20036;SDS011;10179;42.640;23.312;2022-12-29T00:01:50;44.15;;;22.55;;
20036;SDS011;10179;42.640;23.312;2022-12-29T00:04:17;41.45;;;21.60;;
20036;SDS011;10179;42.640;23.312;2022-12-29T00:06:43;46.20;;;23.05;;
20036;SDS011;10179;42.640;23.312;2022-12-29T00:09:10;49.92;;;25.27;;
20036;SDS011;10179;42.640;23.312;2022-12-29T00:11:37;49.45;;;25.35;;
20036;SDS011;10179;42.640;23.312;2022-12-29T00:14:02;52.58;;;24.30;;
20036;SDS011;10179;42.640;23.312;2022-12-29T00:16:46;45.78;;;22.95;;
20036;SDS011;10179;42.640;23.312;2022-12-29T00:19:12;41.45;;;20.77;;
20036;SDS011;10179;42.640;23.312;2022-12-29T00:21:56;44.80;;;21.90;;
20036;SDS011;10179;42.640;23.312;2022-12-29T00:24:41;49.45;;;23.38;;
20036;SDS011;10179;42.640;23.312;2022-12-29T00:27:25;42.42;;;21.83;;
20036;SDS011;10179;42.640;23.312;2022-12-29T00:30:11;39.25;;;20.42;;
20036;SDS011;10179;42.640;23.312;2022-12-29T00:32:56;43.58;;;21.88;;
20036;SDS011;10179;42.640;23.312;2022-12-29T00:35:44;45.90;;;21.15;;
20036;SDS011;10179;42.640;23.312;2022-12-29T00:38:15;45.67;;;22.45;;
20036;SDS011;10179;42.640;23.312;2022-12-29T00:40:59;46.30;;;23.00;;
20036;SDS011;10179;42.640;23.312;2022-12-29T00:43:43;47.30;;;22.55;;
20036;SDS011;10179;42.640;23.312;2022-12-29T00:46:27;46.10;;;22.65;;
20036;SDS011;10179;42.640;23.312;2022-12-29T00:48:53;42.17;;;22.75;;
20036;SDS011;10179;42.640;23.312;2022-12-29T00:51:36;41.90;;;21.30;;
20036;SDS011;10179;42.640;23.312;2022-12-29T00:54:02;40.10;;;20.98;;
20036;SDS011;10179;42.640;23.312;2022-12-29T00:56:27;40.50;;;20.67;;
20036;SDS011;10179;42.640;23.312;2022-12-29T00:58:53;43.72;;;20.20;;
20036;SDS011;10179;42.640;23.312;2022-12-29T01:01:18;34.35;;;19.00;;
20036;SDS011;10179;42.640;23.312;2022-12-29T01:03:44;37.88;;;19.08;;
20036;SDS011;10179;42.640;23.312;2022-12-29T01:06:10;40.30;;;19.67;;
20036;SDS011;10179;42.640;23.312;2022-12-29T01:08:36;39.97;;;21.35;;
20036;SDS011;10179;42.640;23.312;2022-12-29T01:11:03;40.45;;;19.95;;
20036;SDS011;10179;42.640;23.312;2022-12-29T01:13:31;39.58;;;20.60;;
20036;SDS011;10179;42.640;23.312;2022-12-29T01:15:56;40.97;;;21.40;;
20036;SDS011;10179;42.640;23.312;2022-12-29T01:18:23;40.55;;;20.35;;
20036;SDS011;10179;42.640;23.312;2022-12-29T01:20:51;39.70;;;20.98;;
20036;SDS011;10179;42.640;23.312;2022-12-29T01:23:22;44.00;;;22.33;;
20036;SDS011;10179;42.640;23.312;2022-12-29T01:25:48;40.85;;;20.75;;
20036;SDS011;10179;42.640;23.312;2022-12-29T01:28:13;44.65;;;22.30;;
20036;SDS011;10179;42.640;23.312;2022-12-29T01:30:39;41.92;;;21.30;;
20036;SDS011;10179;42.640;23.312;2022-12-29T01:33:04;40.97;;;21.00;;
20036;SDS011;10179;42.640;23.312;2022-12-29T01:35:29;41.65;;;20.67;;
20036;SDS011;10179;42.640;23.312;2022-12-29T01:37:55;50.92;;;22.83;;
20036;SDS011;10179;42.640;23.312;2022-12-29T01:40:20;50.47;;;23.58;;
20036;SDS011;10179;42.640;23.312;2022-12-29T01:42:46;42.63;;;22.42;;
20036;SDS011;10179;42.640;23.312;2022-12-29T01:45:12;51.05;;;24.75;;
20036;SDS011;10179;42.640;23.312;2022-12-29T01:47:43;46.42;;;22.83;;
20036;SDS011;10179;42.640;23.312;2022-12-29T01:50:12;46.08;;;23.45;;
20036;SDS011;10179;42.640;23.312;2022-12-29T01:52:43;46.00;;;25.02;;
20036;SDS011;10179;42.640;23.312;2022-12-29T01:55:36;49.50;;;24.30;;
20036;SDS011;10179;42.640;23.312;2022-12-29T01:58:06;51.10;;;24.52;;
20036;SDS011;10179;42.640;23.312;2022-12-29T02:00:31;44.17;;;23.52;;
20036;SDS011;10179;42.640;23.312;2022-12-29T02:02:57;46.67;;;24.30;;
20036;SDS011;10179;42.640;23.312;2022-12-29T02:07:57;51.83;;;25.23;;
20036;SDS011;10179;42.640;23.312;2022-12-29T02:10:25;39.88;;;22.10;;
20036;SDS011;10179;42.640;23.312;2022-12-29T02:12:53;48.50;;;23.42;;
20036;SDS011;10179;42.640;23.312;2022-12-29T02:15:19;50.17;;;25.10;;
20036;SDS011;10179;42.640;23.312;2022-12-29T02:19:05;50.35;;;24.70;;
20036;SDS011;10179;42.640;23.312;2022-12-29T02:32:17;46.53;;;23.55;;
20036;SDS011;10179;42.640;23.312;2022-12-29T02:34:56;45.15;;;23.05;;
20036;SDS011;10179;42.640;23.312;2022-12-29T02:37:44;45.45;;;23.23;;
20036;SDS011;10179;42.640;23.312;2022-12-29T02:40:16;45.75;;;24.25;;
20036;SDS011;10179;42.640;23.312;2022-12-29T02:43:03;41.97;;;22.73;;
20036;SDS011;10179;42.640;23.312;2022-12-29T02:48:25;48.30;;;23.92;;
20036;SDS011;10179;42.640;23.312;2022-12-29T02:51:07;45.83;;;24.13;;
20036;SDS011;10179;42.640;23.312;2022-12-29T02:53:37;49.33;;;24.55;;
20036;SDS011;10179;42.640;23.312;2022-12-29T02:56:22;44.08;;;22.73;;
20036;SDS011;10179;42.640;23.312;2022-12-29T02:58:48;43.38;;;24.05;;
20036;SDS011;10179;42.640;23.312;2022-12-29T03:07:04;46.97;;;23.88;;
20036;SDS011;10179;42.640;23.312;2022-12-29T03:09:43;46.40;;;23.58;;
20036;SDS011;10179;42.640;23.312;2022-12-29T03:17:40;45.03;;;23.55;;
20036;SDS011;10179;42.640;23.312;2022-12-29T03:20:18;36.40;;;20.75;;
20036;SDS011;10179;42.640;23.312;2022-12-29T03:22:49;46.35;;;23.33;;
20036;SDS011;10179;42.640;23.312;2022-12-29T03:25:29;44.42;;;22.73;;
20036;SDS011;10179;42.640;23.312;2022-12-29T03:28:00;43.60;;;22.45;;
20036;SDS011;10179;42.640;23.312;2022-12-29T03:30:28;45.75;;;22.20;;
20036;SDS011;10179;42.640;23.312;2022-12-29T03:32:57;41.20;;;22.40;;
20036;SDS011;10179;42.640;23.312;2022-12-29T03:35:26;47.53;;;24.15;;
20036;SDS011;10179;42.640;23.312;2022-12-29T03:38:09;46.67;;;23.15;;
20036;SDS011;10179;42.640;23.312;2022-12-29T03:40:41;44.10;;;23.33;;
20036;SDS011;10179;42.640;23.312;2022-12-29T03:43:11;38.58;;;20.63;;
20036;SDS011;10179;42.640;23.312;2022-12-29T03:45:37;46.60;;;23.48;;
20036;SDS011;10179;42.640;23.312;2022-12-29T03:48:03;42.38;;;22.77;;
20036;SDS011;10179;42.640;23.312;2022-12-29T03:50:28;44.88;;;22.92;;
20036;SDS011;10179;42.640;23.312;2022-12-29T03:52:54;44.58;;;24.17;;
20036;SDS011;10179;42.640;23.312;2022-12-29T03:55:19;42.25;;;22.92;;
20036;SDS011;10179;42.640;23.312;2022-12-29T03:57:45;50.17;;;24.55;;
20036;SDS011;10179;42.640;23.312;2022-12-29T04:00:10;43.25;;;22.00;;
20036;SDS011;10179;42.640;23.312;2022-12-29T04:02:36;44.53;;;23.15;;
20036;SDS011;10179;42.640;23.312;2022-12-29T04:05:02;49.42;;;26.80;;
20036;SDS011;10179;42.640;23.312;2022-12-29T04:07:27;45.75;;;23.88;;
20036;SDS011;10179;42.640;23.312;2022-12-29T04:09:53;51.92;;;24.23;;
20036;SDS011;10179;42.640;23.312;2022-12-29T04:12:18;55.45;;;25.98;;
20036;SDS011;10179;42.640;23.312;2022-12-29T04:14:44;52.58;;;26.65;;
20036;SDS011;10179;42.640;23.312;2022-12-29T04:17:09;58.78;;;28.10;;
20036;SDS011;10179;42.640;23.312;2022-12-29T04:19:35;60.72;;;30.83;;
20036;SDS011;10179;42.640;23.312;2022-12-29T04:22:00;76.60;;;34.90;;
20036;SDS011;10179;42.640;23.312;2022-12-29T04:24:25;70.88;;;35.30;;
20036;SDS011;10179;42.640;23.312;2022-12-29T04:26:51;78.28;;;36.38;;
20036;SDS011;10179;42.640;23.312;2022-12-29T04:29:16;75.90;;;35.70;;
20036;SDS011;10179;42.640;23.312;2022-12-29T04:31:42;72.45;;;34.88;;
20036;SDS011;10179;42.640;23.312;2022-12-29T04:34:07;68.00;;;33.53;;
20036;SDS011;10179;42.640;23.312;2022-12-29T04:36:33;50.17;;;26.73;;
20036;SDS011;10179;42.640;23.312;2022-12-29T04:38:58;79.95;;;37.22;;
20036;SDS011;10179;42.640;23.312;2022-12-29T04:41:24;66.75;;;34.00;;
20036;SDS011;10179;42.640;23.312;2022-12-29T04:43:49;64.88;;;30.92;;
20036;SDS011;10179;42.640;23.312;2022-12-29T04:46:15;62.88;;;31.35;;
20036;SDS011;10179;42.640;23.312;2022-12-29T04:48:40;55.97;;;29.33;;
20036;SDS011;10179;42.640;23.312;2022-12-29T04:51:05;58.17;;;28.67;;
20036;SDS011;10179;42.640;23.312;2022-12-29T04:53:31;53.92;;;28.75;;
20036;SDS011;10179;42.640;23.312;2022-12-29T04:55:56;56.75;;;28.52;;
20036;SDS011;10179;42.640;23.312;2022-12-29T04:58:22;55.95;;;28.55;;
20036;SDS011;10179;42.640;23.312;2022-12-29T05:00:47;50.63;;;24.17;;
20036;SDS011;10179;42.640;23.312;2022-12-29T05:03:12;50.47;;;24.75;;
20036;SDS011;10179;42.640;23.312;2022-12-29T05:05:38;42.15;;;21.13;;
20036;SDS011;10179;42.640;23.312;2022-12-29T05:08:03;51.97;;;24.80;;
20036;SDS011;10179;42.640;23.312;2022-12-29T05:10:29;45.78;;;24.40;;
20036;SDS011;10179;42.640;23.312;2022-12-29T05:12:55;51.55;;;24.33;;
20036;SDS011;10179;42.640;23.312;2022-12-29T05:15:20;49.97;;;24.38;;
20036;SDS011;10179;42.640;23.312;2022-12-29T05:20:39;40.75;;;21.67;;
20036;SDS011;10179;42.640;23.312;2022-12-29T05:23:05;46.60;;;24.20;;
20036;SDS011;10179;42.640;23.312;2022-12-29T05:25:30;49.42;;;22.80;;
20036;SDS011;10179;42.640;23.312;2022-12-29T05:27:56;48.08;;;22.88;;
20036;SDS011;10179;42.640;23.312;2022-12-29T05:30:21;42.78;;;23.15;;
20036;SDS011;10179;42.640;23.312;2022-12-29T05:32:47;47.60;;;23.33;;
20036;SDS011;10179;42.640;23.312;2022-12-29T05:35:12;49.70;;;24.50;;
20036;SDS011;10179;42.640;23.312;2022-12-29T05:37:37;47.72;;;24.13;;
20036;SDS011;10179;42.640;23.312;2022-12-29T05:40:04;49.22;;;24.08;;
20036;SDS011;10179;42.640;23.312;2022-12-29T05:42:30;47.38;;;24.70;;
20036;SDS011;10179;42.640;23.312;2022-12-29T05:44:55;40.30;;;23.15;;
20036;SDS011;10179;42.640;23.312;2022-12-29T05:47:21;47.60;;;25.05;;
20036;SDS011;10179;42.640;23.312;2022-12-29T05:49:46;50.63;;;24.08;;
20036;SDS011;10179;42.640;23.312;2022-12-29T05:55:07;53.28;;;25.67;;
20036;SDS011;10179;42.640;23.312;2022-12-29T05:57:32;48.25;;;24.83;;
20036;SDS011;10179;42.640;23.312;2022-12-29T05:59:58;47.28;;;24.35;;
20036;SDS011;10179;42.640;23.312;2022-12-29T06:02:23;58.15;;;27.10;;
20036;SDS011;10179;42.640;23.312;2022-12-29T06:04:49;55.40;;;26.83;;
20036;SDS011;10179;42.640;23.312;2022-12-29T06:07:14;49.33;;;24.92;;
20036;SDS011;10179;42.640;23.312;2022-12-29T06:09:39;57.35;;;25.58;;
20036;SDS011;10179;42.640;23.312;2022-12-29T06:12:05;46.72;;;24.10;;
20036;SDS011;10179;42.640;23.312;2022-12-29T06:14:31;51.70;;;25.63;;
20036;SDS011;10179;42.640;23.312;2022-12-29T06:16:56;47.97;;;23.45;;
20036;SDS011;10179;42.640;23.312;2022-12-29T06:19:21;45.70;;;24.13;;
20036;SDS011;10179;42.640;23.312;2022-12-29T06:21:47;46.70;;;23.05;;
20036;SDS011;10179;42.640;23.312;2022-12-29T06:24:12;43.80;;;21.60;;
20036;SDS011;10179;42.640;23.312;2022-12-29T06:26:38;43.80;;;22.88;;
20036;SDS011;10179;42.640;23.312;2022-12-29T06:29:05;52.97;;;23.23;;
20036;SDS011;10179;42.640;23.312;2022-12-29T06:31:32;42.15;;;22.85;;
20036;SDS011;10179;42.640;23.312;2022-12-29T06:33:57;48.22;;;22.20;;
20036;SDS011;10179;42.640;23.312;2022-12-29T06:36:22;44.20;;;22.58;;
20036;SDS011;10179;42.640;23.312;2022-12-29T06:38:48;46.80;;;22.38;;
20036;SDS011;10179;42.640;23.312;2022-12-29T06:41:13;43.65;;;22.08;;
20036;SDS011;10179;42.640;23.312;2022-12-29T06:43:39;41.90;;;22.38;;
20036;SDS011;10179;42.640;23.312;2022-12-29T06:46:04;37.20;;;20.58;;
20036;SDS011;10179;42.640;23.312;2022-12-29T06:48:30;41.15;;;21.20;;
20036;SDS011;10179;42.640;23.312;2022-12-29T06:50:55;41.95;;;21.13;;
20036;SDS011;10179;42.640;23.312;2022-12-29T06:53:21;40.55;;;22.13;;
20036;SDS011;10179;42.640;23.312;2022-12-29T06:55:46;39.83;;;22.23;;
20036;SDS011;10179;42.640;23.312;2022-12-29T06:58:12;38.15;;;20.50;;
20036;SDS011;10179;42.640;23.312;2022-12-29T07:00:37;40.42;;;20.85;;
20036;SDS011;10179;42.640;23.312;2022-12-29T07:03:03;41.03;;;21.05;;
20036;SDS011;10179;42.640;23.312;2022-12-29T07:05:28;47.38;;;22.55;;
20036;SDS011;10179;42.640;23.312;2022-12-29T07:07:56;40.42;;;22.80;;
20036;SDS011;10179;42.640;23.312;2022-12-29T07:10:22;45.28;;;21.52;;
20036;SDS011;10179;42.640;23.312;2022-12-29T07:12:47;42.50;;;22.15;;
20036;SDS011;10179;42.640;23.312;2022-12-29T07:15:13;39.92;;;21.98;;
20036;SDS011;10179;42.640;23.312;2022-12-29T07:17:38;39.80;;;20.88;;
20036;SDS011;10179;42.640;23.312;2022-12-29T07:20:04;42.38;;;21.85;;
20036;SDS011;10179;42.640;23.312;2022-12-29T07:22:31;43.13;;;23.10;;
20036;SDS011;10179;42.640;23.312;2022-12-29T07:24:56;42.65;;;22.35;;
20036;SDS011;10179;42.640;23.312;2022-12-29T07:27:21;40.60;;;21.58;;
20036;SDS011;10179;42.640;23.312;2022-12-29T07:29:47;43.65;;;22.83;;
20036;SDS011;10179;42.640;23.312;2022-12-29T07:32:12;40.58;;;21.25;;
20036;SDS011;10179;42.640;23.312;2022-12-29T07:34:38;42.03;;;21.45;;
20036;SDS011;10179;42.640;23.312;2022-12-29T07:37:04;44.13;;;22.40;;
20036;SDS011;10179;42.640;23.312;2022-12-29T07:39:30;41.90;;;21.73;;
20036;SDS011;10179;42.640;23.312;2022-12-29T07:41:55;41.53;;;22.60;;
20036;SDS011;10179;42.640;23.312;2022-12-29T07:44:20;36.88;;;20.88;;
20036;SDS011;10179;42.640;23.312;2022-12-29T07:46:46;39.88;;;21.13;;
20036;SDS011;10179;42.640;23.312;2022-12-29T07:49:12;45.53;;;22.63;;
20036;SDS011;10179;42.640;23.312;2022-12-29T07:51:37;43.67;;;21.60;;
20036;SDS011;10179;42.640;23.312;2022-12-29T07:54:03;48.40;;;22.90;;
20036;SDS011;10179;42.640;23.312;2022-12-29T07:56:28;43.40;;;22.52;;
20036;SDS011;10179;42.640;23.312;2022-12-29T07:58:54;47.65;;;22.88;;
20036;SDS011;10179;42.640;23.312;2022-12-29T08:01:19;38.97;;;21.90;;
20036;SDS011;10179;42.640;23.312;2022-12-29T08:03:44;39.55;;;22.67;;
20036;SDS011;10179;42.640;23.312;2022-12-29T08:06:10;41.88;;;21.58;;
20036;SDS011;10179;42.640;23.312;2022-12-29T08:08:36;38.58;;;21.17;;
20036;SDS011;10179;42.640;23.312;2022-12-29T08:11:03;43.78;;;22.90;;
20036;SDS011;10179;42.640;23.312;2022-12-29T08:13:28;43.92;;;23.92;;
20036;SDS011;10179;42.640;23.312;2022-12-29T08:15:54;44.83;;;22.83;;
20036;SDS011;10179;42.640;23.312;2022-12-29T08:18:19;50.38;;;23.65;;
20036;SDS011;10179;42.640;23.312;2022-12-29T08:20:44;52.88;;;23.35;;
20036;SDS011;10179;42.640;23.312;2022-12-29T08:23:10;42.38;;;23.25;;
20036;SDS011;10179;42.640;23.312;2022-12-29T08:25:35;42.65;;;22.60;;
20036;SDS011;10179;42.640;23.312;2022-12-29T08:28:00;43.90;;;21.52;;
20036;SDS011;10179;42.640;23.312;2022-12-29T08:30:26;44.75;;;23.52;;
20036;SDS011;10179;42.640;23.312;2022-12-29T08:32:51;52.47;;;24.88;;
20036;SDS011;10179;42.640;23.312;2022-12-29T08:35:17;41.95;;;21.30;;
20036;SDS011;10179;42.640;23.312;2022-12-29T08:37:42;46.17;;;22.77;;
20036;SDS011;10179;42.640;23.312;2022-12-29T08:40:08;49.90;;;23.40;;
20036;SDS011;10179;42.640;23.312;2022-12-29T08:42:33;43.30;;;23.48;;
20036;SDS011;10179;42.640;23.312;2022-12-29T08:44:59;48.53;;;24.75;;
20036;SDS011;10179;42.640;23.312;2022-12-29T08:47:25;47.33;;;23.23;;
20036;SDS011;10179;42.640;23.312;2022-12-29T08:49:51;44.65;;;22.20;;
20036;SDS011;10179;42.640;23.312;2022-12-29T08:52:17;48.03;;;23.75;;
20036;SDS011;10179;42.640;23.312;2022-12-29T08:54:42;46.28;;;23.52;;
20036;SDS011;10179;42.640;23.312;2022-12-29T08:57:08;43.22;;;23.08;;
20036;SDS011;10179;42.640;23.312;2022-12-29T08:59:34;48.80;;;24.58;;
20036;SDS011;10179;42.640;23.312;2022-12-29T09:01:59;46.83;;;24.77;;
20036;SDS011;10179;42.640;23.312;2022-12-29T09:04:26;52.13;;;25.85;;
20036;SDS011;10179;42.640;23.312;2022-12-29T09:06:52;47.45;;;23.80;;
20036;SDS011;10179;42.640;23.312;2022-12-29T09:09:17;45.50;;;23.38;;
20036;SDS011;10179;42.640;23.312;2022-12-29T09:11:43;49.03;;;25.08;;
20036;SDS011;10179;42.640;23.312;2022-12-29T09:14:09;45.45;;;25.00;;
20036;SDS011;10179;42.640;23.312;2022-12-29T09:16:34;49.42;;;25.05;;
20036;SDS011;10179;42.640;23.312;2022-12-29T09:19:00;48.88;;;26.13;;
20036;SDS011;10179;42.640;23.312;2022-12-29T09:21:26;48.05;;;25.70;;
20036;SDS011;10179;42.640;23.312;2022-12-29T09:23:51;50.63;;;25.70;;
20036;SDS011;10179;42.640;23.312;2022-12-29T09:26:16;56.25;;;25.67;;
20036;SDS011;10179;42.640;23.312;2022-12-29T09:28:42;53.40;;;25.95;;
20036;SDS011;10179;42.640;23.312;2022-12-29T09:31:09;48.42;;;25.45;;
20036;SDS011;10179;42.640;23.312;2022-12-29T09:33:34;47.78;;;25.02;;
20036;SDS011;10179;42.640;23.312;2022-12-29T09:36:00;45.53;;;25.13;;
20036;SDS011;10179;42.640;23.312;2022-12-29T09:38:25;44.75;;;25.02;;
20036;SDS011;10179;42.640;23.312;2022-12-29T09:40:53;50.80;;;24.77;;
20036;SDS011;10179;42.640;23.312;2022-12-29T09:48:31;50.58;;;26.08;;
20036;SDS011;10179;42.640;23.312;2022-12-29T09:51:03;48.45;;;24.88;;
20036;SDS011;10179;42.640;23.312;2022-12-29T09:53:38;48.13;;;25.08;;
20036;SDS011;10179;42.640;23.312;2022-12-29T09:56:16;45.88;;;24.65;;
20036;SDS011;10179;42.640;23.312;2022-12-29T09:58:50;44.95;;;24.83;;
20036;SDS011;10179;42.640;23.312;2022-12-29T10:01:31;45.65;;;24.38;;
20036;SDS011;10179;42.640;23.312;2022-12-29T10:04:10;49.55;;;24.27;;
20036;SDS011;10179;42.640;23.312;2022-12-29T10:09:23;48.20;;;25.65;;
20036;SDS011;10179;42.640;23.312;2022-12-29T10:12:01;46.85;;;25.42;;
20036;SDS011;10179;42.640;23.312;2022-12-29T10:20:25;53.13;;;26.75;;
20036;SDS011;10179;42.640;23.312;2022-12-29T10:25:37;45.95;;;25.02;;
20036;SDS011;10179;42.640;23.312;2022-12-29T10:28:13;49.47;;;25.73;;
20036;SDS011;10179;42.640;23.312;2022-12-29T10:30:46;52.55;;;25.38;;
20036;SDS011;10179;42.640;23.312;2022-12-29T10:33:15;47.83;;;24.95;;
20036;SDS011;10179;42.640;23.312;2022-12-29T10:35:45;46.63;;;25.42;;
20036;SDS011;10179;42.640;23.312;2022-12-29T10:38:14;44.72;;;24.13;;
20036;SDS011;10179;42.640;23.312;2022-12-29T10:43:44;52.30;;;25.48;;
20036;SDS011;10179;42.640;23.312;2022-12-29T10:46:12;54.30;;;25.98;;
20036;SDS011;10179;42.640;23.312;2022-12-29T10:48:43;45.70;;;24.58;;
20036;SDS011;10179;42.640;23.312;2022-12-29T10:51:11;52.80;;;25.60;;
20036;SDS011;10179;42.640;23.312;2022-12-29T10:53:46;46.00;;;24.40;;
20036;SDS011;10179;42.640;23.312;2022-12-29T10:56:25;46.58;;;24.38;;
20036;SDS011;10179;42.640;23.312;2022-12-29T10:59:00;48.10;;;23.50;;
20036;SDS011;10179;42.640;23.312;2022-12-29T11:01:33;43.55;;;24.35;;
20036;SDS011;10179;42.640;23.312;2022-12-29T11:04:07;42.35;;;22.48;;
20036;SDS011;10179;42.640;23.312;2022-12-29T11:06:58;48.80;;;24.48;;
20036;SDS011;10179;42.640;23.312;2022-12-29T11:09:27;46.47;;;23.50;;
20036;SDS011;10179;42.640;23.312;2022-12-29T11:11:55;51.65;;;22.90;;
20036;SDS011;10179;42.640;23.312;2022-12-29T11:14:30;45.10;;;23.17;;
20036;SDS011;10179;42.640;23.312;2022-12-29T11:16:59;51.17;;;23.88;;
20036;SDS011;10179;42.640;23.312;2022-12-29T11:19:27;45.13;;;23.52;;
20036;SDS011;10179;42.640;23.312;2022-12-29T11:21:56;43.72;;;22.88;;
20036;SDS011;10179;42.640;23.312;2022-12-29T11:24:43;47.33;;;22.92;;
20036;SDS011;10179;42.640;23.312;2022-12-29T11:27:17;46.30;;;23.70;;
20036;SDS011;10179;42.640;23.312;2022-12-29T11:29:52;42.53;;;22.33;;
20036;SDS011;10179;42.640;23.312;2022-12-29T11:32:19;42.72;;;22.20;;
20036;SDS011;10179;42.640;23.312;2022-12-29T11:34:54;40.97;;;21.58;;
20036;SDS011;10179;42.640;23.312;2022-12-29T11:40:05;48.38;;;22.27;;
20036;SDS011;10179;42.640;23.312;2022-12-29T11:45:16;44.38;;;22.73;;
20036;SDS011;10179;42.640;23.312;2022-12-29T11:47:45;43.97;;;22.45;;
20036;SDS011;10179;42.640;23.312;2022-12-29T11:50:27;50.15;;;23.35;;
20036;SDS011;10179;42.640;23.312;2022-12-29T11:52:58;48.05;;;22.98;;
20036;SDS011;10179;42.640;23.312;2022-12-29T11:55:27;47.42;;;23.45;;
20036;SDS011;10179;42.640;23.312;2022-12-29T11:57:54;46.60;;;23.73;;
20036;SDS011;10179;42.640;23.312;2022-12-29T12:00:24;46.92;;;23.98;;
20036;SDS011;10179;42.640;23.312;2022-12-29T12:08:21;44.00;;;22.65;;
20036;SDS011;10179;42.640;23.312;2022-12-29T12:10:58;42.65;;;22.48;;
20036;SDS011;10179;42.640;23.312;2022-12-29T12:16:19;45.00;;;22.35;;
20036;SDS011;10179;42.640;23.312;2022-12-29T12:18:57;49.60;;;23.33;;
20036;SDS011;10179;42.640;23.312;2022-12-29T12:21:39;51.72;;;25.35;;
20036;SDS011;10179;42.640;23.312;2022-12-29T12:35:10;45.22;;;23.48;;
20036;SDS011;10179;42.640;23.312;2022-12-29T12:43:18;44.92;;;23.08;;
20036;SDS011;10179;42.640;23.312;2022-12-29T13:00:12;49.85;;;22.80;;
20036;SDS011;10179;42.640;23.312;2022-12-29T13:08:38;50.40;;;21.55;;
20036;SDS011;10179;42.640;23.312;2022-12-29T13:16:51;43.05;;;23.50;;
20036;SDS011;10179;42.640;23.312;2022-12-29T13:22:16;58.47;;;27.00;;
20036;SDS011;10179;42.640;23.312;2022-12-29T13:30:04;51.97;;;25.70;;
20036;SDS011;10179;42.640;23.312;2022-12-29T13:38:12;56.60;;;26.05;;
20036;SDS011;10179;42.640;23.312;2022-12-29T13:40:49;65.30;;;29.30;;
20036;SDS011;10179;42.640;23.312;2022-12-29T13:43:20;56.33;;;26.83;;
20036;SDS011;10179;42.640;23.312;2022-12-29T13:45:49;55.25;;;25.73;;
20036;SDS011;10179;42.640;23.312;2022-12-29T13:48:25;53.45;;;24.33;;
20036;SDS011;10179;42.640;23.312;2022-12-29T13:51:05;63.58;;;28.23;;
20036;SDS011;10179;42.640;23.312;2022-12-29T13:58:35;62.95;;;31.20;;
20036;SDS011;10179;42.640;23.312;2022-12-29T14:08:39;48.35;;;26.50;;
20036;SDS011;10179;42.640;23.312;2022-12-29T14:11:09;52.63;;;26.75;;
20036;SDS011;10179;42.640;23.312;2022-12-29T14:13:39;47.35;;;24.33;;
20036;SDS011;10179;42.640;23.312;2022-12-29T14:16:24;57.88;;;28.20;;
20036;SDS011;10179;42.640;23.312;2022-12-29T14:18:53;54.08;;;29.45;;
20036;SDS011;10179;42.640;23.312;2022-12-29T14:21:22;63.08;;;29.85;;
20036;SDS011;10179;42.640;23.312;2022-12-29T14:24:00;62.38;;;29.02;;
20036;SDS011;10179;42.640;23.312;2022-12-29T14:32:49;63.05;;;28.00;;
20036;SDS011;10179;42.640;23.312;2022-12-29T14:34:50;51.92;;;25.92;;
20036;SDS011;10179;42.640;23.312;2022-12-29T14:40:06;53.70;;;26.60;;
20036;SDS011;10179;42.640;23.312;2022-12-29T14:42:42;55.03;;;26.85;;
20036;SDS011;10179;42.640;23.312;2022-12-29T14:45:25;51.63;;;24.10;;
20036;SDS011;10179;42.640;23.312;2022-12-29T14:47:54;48.00;;;24.13;;
20036;SDS011;10179;42.640;23.312;2022-12-29T14:58:29;50.45;;;22.92;;
20036;SDS011;10179;42.640;23.312;2022-12-29T15:00:58;50.58;;;22.58;;
20036;SDS011;10179;42.640;23.312;2022-12-29T15:06:15;46.80;;;22.98;;
20036;SDS011;10179;42.640;23.312;2022-12-29T15:08:46;55.45;;;23.55;;
20036;SDS011;10179;42.640;23.312;2022-12-29T15:14:01;52.47;;;24.35;;
20036;SDS011;10179;42.640;23.312;2022-12-29T15:19:01;58.03;;;28.55;;
20036;SDS011;10179;42.640;23.312;2022-12-29T15:21:29;63.72;;;31.55;;
20036;SDS011;10179;42.640;23.312;2022-12-29T15:23:56;66.65;;;29.55;;
20036;SDS011;10179;42.640;23.312;2022-12-29T15:26:22;55.90;;;26.58;;
20036;SDS011;10179;42.640;23.312;2022-12-29T15:29:00;44.90;;;23.10;;
20036;SDS011;10179;42.640;23.312;2022-12-29T15:31:25;52.28;;;26.98;;
20036;SDS011;10179;42.640;23.312;2022-12-29T15:33:52;55.00;;;26.75;;
20036;SDS011;10179;42.640;23.312;2022-12-29T15:38:46;54.08;;;25.20;;
20036;SDS011;10179;42.640;23.312;2022-12-29T15:41:19;70.75;;;30.50;;
20036;SDS011;10179;42.640;23.312;2022-12-29T15:46:32;72.03;;;32.90;;
20036;SDS011;10179;42.640;23.312;2022-12-29T15:48:58;66.57;;;31.75;;
20036;SDS011;10179;42.640;23.312;2022-12-29T15:51:30;68.45;;;30.75;;
20036;SDS011;10179;42.640;23.312;2022-12-29T15:53:59;58.28;;;27.48;;
20036;SDS011;10179;42.640;23.312;2022-12-29T15:56:28;64.70;;;30.60;;
20036;SDS011;10179;42.640;23.312;2022-12-29T15:58:55;60.47;;;28.13;;
20036;SDS011;10179;42.640;23.312;2022-12-29T16:01:32;57.42;;;24.88;;
20036;SDS011;10179;42.640;23.312;2022-12-29T16:04:00;56.83;;;26.05;;
20036;SDS011;10179;42.640;23.312;2022-12-29T16:09:18;52.20;;;24.25;;
20036;SDS011;10179;42.640;23.312;2022-12-29T16:11:44;45.60;;;24.08;;
20036;SDS011;10179;42.640;23.312;2022-12-29T16:14:14;46.28;;;21.95;;
20036;SDS011;10179;42.640;23.312;2022-12-29T16:16:43;37.13;;;18.88;;
20036;SDS011;10179;42.640;23.312;2022-12-29T16:19:15;37.70;;;18.20;;
20036;SDS011;10179;42.640;23.312;2022-12-29T16:21:46;35.88;;;18.60;;
20036;SDS011;10179;42.640;23.312;2022-12-29T16:24:17;35.92;;;19.52;;
20036;SDS011;10179;42.640;23.312;2022-12-29T16:26:48;45.95;;;21.27;;
20036;SDS011;10179;42.640;23.312;2022-12-29T16:29:16;59.22;;;26.38;;
20036;SDS011;10179;42.640;23.312;2022-12-29T16:31:54;54.95;;;26.20;;
20036;SDS011;10179;42.640;23.312;2022-12-29T16:34:33;59.45;;;28.85;;
20036;SDS011;10179;42.640;23.312;2022-12-29T16:39:54;76.25;;;36.20;;
20036;SDS011;10179;42.640;23.312;2022-12-29T16:42:35;76.60;;;37.45;;
20036;SDS011;10179;42.640;23.312;2022-12-29T16:50:32;51.20;;;24.50;;
20036;SDS011;10179;42.640;23.312;2022-12-29T16:52:59;65.60;;;31.83;;
20036;SDS011;10179;42.640;23.312;2022-12-29T16:55:26;69.93;;;36.17;;
20036;SDS011;10179;42.640;23.312;2022-12-29T16:57:52;57.08;;;28.75;;
20036;SDS011;10179;42.640;23.312;2022-12-29T17:00:25;56.70;;;28.88;;
20036;SDS011;10179;42.640;23.312;2022-12-29T17:02:56;57.15;;;29.52;;
20036;SDS011;10179;42.640;23.312;2022-12-29T17:05:23;40.00;;;21.52;;
20036;SDS011;10179;42.640;23.312;2022-12-29T17:07:49;43.35;;;20.83;;
20036;SDS011;10179;42.640;23.312;2022-12-29T17:10:16;42.63;;;19.17;;
20036;SDS011;10179;42.640;23.312;2022-12-29T17:12:42;37.58;;;19.45;;
20036;SDS011;10179;42.640;23.312;2022-12-29T17:15:25;42.78;;;21.42;;
20036;SDS011;10179;42.640;23.312;2022-12-29T17:17:57;42.10;;;20.60;;